Time;durP1;ratioP1;P1;durP2;ratioP2;P2;SDS_P1;SDS_P2;PMS_P1;PMS_P2;Temp;Humidity;BMP_temperature;BMP_pressure;BME280_temperature;BME280_humidity;BME280_pressure;Samples;Min_cycle;Max_cycle;Signal;HPM_P1;HPM_P2
2021/01/26 00:00:01;;;;;;;21.83;12.27;;;;;;;-1.15;91.32;98775.22;5055506;28;20064;-78
2021/01/26 00:02:27;;;;;;;21.37;10.33;;;;;;;-1.10;91.01;98797.06;5054453;28;20794;-78
2021/01/26 00:04:54;;;;;;;25.60;12.47;;;;;;;-1.21;91.14;98786.38;5055077;28;20509;-78
2021/01/26 00:07:21;;;;;;;22.20;11.83;;;;;;;-1.15;91.44;98804.56;5055433;28;20052;-78
2021/01/26 00:09:47;;;;;;;23.23;11.77;;;;;;;-1.41;91.15;98773.75;5055583;28;20082;-78
2021/01/26 00:12:14;;;;;;;22.03;12.07;;;;;;;-1.29;91.48;98797.63;5054987;28;20122;-78
2021/01/26 00:14:40;;;;;;;17.97;11.23;;;;;;;-1.47;91.00;98772.41;5055142;28;20127;-78
2021/01/26 00:17:07;;;;;;;22.80;12.10;;;;;;;-1.30;91.80;98800.41;5054822;28;20503;-78
2021/01/26 00:19:33;;;;;;;22.83;11.93;;;;;;;-1.45;91.64;98778.44;5054308;28;20497;-78
2021/01/26 00:21:59;;;;;;;21.13;11.97;;;;;;;-1.30;91.46;98805.75;5055116;28;20103;-78
2021/01/26 00:24:26;;;;;;;21.03;11.60;;;;;;;-1.32;91.49;98797.88;5054583;28;20044;-78
2021/01/26 00:26:52;;;;;;;20.53;11.20;;;;;;;-1.29;91.25;98808.31;5054975;28;20057;-78
2021/01/26 00:29:22;;;;;;;23.40;12.00;;;;;;;-1.29;91.16;98802.97;5055064;28;20061;-78
2021/01/26 00:31:48;;;;;;;20.85;12.10;;;;;;;-1.23;90.58;98820.31;5053362;28;20060;-78
2021/01/26 00:34:15;;;;;;;24.57;13.60;;;;;;;-1.31;90.84;98815.59;5054124;28;20517;-78
2021/01/26 00:36:41;;;;;;;20.97;12.53;;;;;;;-1.46;90.48;98793.59;5054509;28;20068;-78
2021/01/26 00:39:07;;;;;;;22.57;12.87;;;;;;;-1.28;90.68;98809.13;5054734;28;20064;-78
2021/01/26 00:41:35;;;;;;;21.80;10.87;;;;;;;-1.32;90.64;98807.69;5053984;28;20045;-78
2021/01/26 00:44:01;;;;;;;22.40;12.13;;;;;;;-1.34;90.62;98806.94;5054364;28;20626;-78
2021/01/26 00:46:27;;;;;;;18.33;10.77;;;;;;;-1.37;90.72;98812.50;5054437;28;20497;-78
2021/01/26 00:48:53;;;;;;;22.60;12.33;;;;;;;-1.45;91.30;98799.78;5054401;28;20049;-78
2021/01/26 00:51:20;;;;;;;27.93;12.30;;;;;;;-1.46;90.92;98806.94;5054315;28;20056;-78
2021/01/26 00:53:46;;;;;;;20.47;11.53;;;;;;;-1.38;90.90;98816.16;5054422;28;20041;-78
2021/01/26 00:56:13;;;;;;;22.23;12.77;;;;;;;-1.47;90.87;98812.38;5036496;28;20045;-78
2021/01/26 00:58:40;;;;;;;23.77;11.57;;;;;;;-1.39;91.05;98827.78;5054474;28;20064;-78
2021/01/26 01:01:06;;;;;;;26.53;12.73;;;;;;;-1.47;91.26;98805.22;5054635;28;20053;-78
2021/01/26 01:03:33;;;;;;;27.17;13.13;;;;;;;-1.44;90.99;98809.47;5054402;28;20051;-78
2021/01/26 01:05:59;;;;;;;20.10;11.83;;;;;;;-1.43;91.00;98827.16;5054365;28;20524;-78
2021/01/26 01:08:26;;;;;;;20.53;11.67;;;;;;;-1.52;91.57;98818.06;5054539;28;20049;-78
2021/01/26 01:10:53;;;;;;;22.33;12.30;;;;;;;-1.51;92.25;98821.56;5054725;28;20053;-78
2021/01/26 01:13:20;;;;;;;23.37;11.57;;;;;;;-1.49;91.78;98820.50;5054477;28;20190;-78
2021/01/26 01:15:47;;;;;;;21.63;11.23;;;;;;;-1.59;91.60;98790.19;5053894;28;20048;-78
2021/01/26 01:18:14;;;;;;;22.83;11.47;;;;;;;-1.43;91.48;98820.03;5053905;28;20053;-78
2021/01/26 01:20:40;;;;;;;26.47;12.40;;;;;;;-1.33;91.57;98841.50;5054506;28;20543;-78
2021/01/26 01:23:07;;;;;;;25.00;11.40;;;;;;;-1.55;91.32;98807.66;5054163;28;20481;-78
2021/01/26 01:25:33;;;;;;;25.07;12.47;;;;;;;-1.30;91.03;98845.75;5053690;28;20045;-79
2021/01/26 01:28:00;;;;;;;27.27;13.20;;;;;;;-1.31;91.12;98833.38;5054251;28;20060;-78
2021/01/26 01:30:29;;;;;;;25.53;12.13;;;;;;;-1.36;90.99;98841.72;5053932;28;20040;-78
2021/01/26 01:32:56;;;;;;;27.90;13.00;;;;;;;-1.19;91.11;98855.59;5053735;28;20477;-78
2021/01/26 01:35:23;;;;;;;25.67;14.03;;;;;;;-1.29;90.94;98844.81;5053763;28;20053;-78
2021/01/26 01:37:51;;;;;;;20.63;11.57;;;;;;;-1.28;90.86;98866.03;5053687;28;20110;-78
2021/01/26 01:40:21;;;;;;;23.03;11.63;;;;;;;-1.40;90.52;98853.63;5053375;28;20049;-78
2021/01/26 01:42:48;;;;;;;18.55;10.35;;;;;;;-1.35;91.20;98870.13;5053078;28;20079;-78
2021/01/26 01:45:16;;;;;;;21.80;11.73;;;;;;;-1.40;91.49;98856.28;5053557;28;20482;-78
2021/01/26 01:47:46;;;;;;;22.63;11.23;;;;;;;-1.29;90.81;98868.81;5053715;28;20045;-78
2021/01/26 01:50:23;;;;;;;20.33;11.15;;;;;;;-1.45;90.85;98859.28;5053162;28;20044;-79
2021/01/26 01:52:58;;;;;;;25.03;12.30;;;;;;;-1.39;90.56;98859.78;5053864;28;20048;-79
2021/01/26 01:55:29;;;;;;;22.07;10.83;;;;;;;-1.31;89.94;98870.72;5053529;28;20052;-79
2021/01/26 01:58:00;;;;;;;21.80;11.20;;;;;;;-1.32;90.27;98875.22;5053754;28;20444;-79
2021/01/26 02:00:27;;;;;;;24.83;11.80;;;;;;;-1.49;90.30;98857.84;5053500;28;20075;-79
2021/01/26 02:02:58;;;;;;;22.10;11.20;;;;;;;-1.40;90.29;98879.41;5053523;28;20045;-78
2021/01/26 02:05:25;;;;;;;24.10;12.50;;;;;;;-1.51;90.42;98867.75;5053436;28;20051;-79
2021/01/26 02:07:55;;;;;;;19.47;10.20;;;;;;;-1.47;89.83;98879.03;5053595;28;20048;-78
2021/01/26 02:10:23;;;;;;;22.17;11.37;;;;;;;-1.37;89.98;98893.41;5053280;28;20077;-79
2021/01/26 02:12:50;;;;;;;23.07;12.17;;;;;;;-1.50;90.33;98869.44;5053314;28;20413;-78
2021/01/26 02:15:16;;;;;;;23.60;12.57;;;;;;;-1.45;90.20;98871.78;5053425;28;20456;-79
2021/01/26 02:18:05;;;;;;;24.27;11.60;;;;;;;-1.23;90.09;98892.34;5053507;28;20049;-79
2021/01/26 02:21:05;;;;;;;22.73;11.37;;;;;;;-1.36;89.38;98871.06;5053537;28;20072;-78
2021/01/26 02:24:05;;;;;;;24.10;11.87;;;;;;;-1.27;89.78;98901.53;5052873;28;20501;-78
2021/01/26 02:27:03;;;;;;;24.17;11.60;;;;;;;-1.28;89.73;98894.50;5001112;28;20064;-78
2021/01/26 02:29:50;;;;;;;24.60;12.37;;;;;;;-1.27;89.44;98889.03;5053028;28;20124;-78
2021/01/26 02:32:23;;;;;;;24.53;10.43;;;;;;;-1.41;88.40;98878.59;5050382;28;20056;-78
2021/01/26 02:35:29;;;;;;;23.00;11.53;;;;;;;-1.35;89.07;98890.59;5052442;28;20505;-79
2021/01/26 02:38:34;;;;;;;18.90;9.73;;;;;;;-1.38;89.04;98894.34;5047705;28;20443;-78
2021/01/26 02:41:07;;;;;;;20.60;9.03;;;;;;;-1.60;88.49;98876.44;5023013;28;20394;-78
2021/01/26 02:43:55;;;;;;;27.70;10.97;;;;;;;-1.59;89.06;98859.50;5053227;28;20049;-78
2021/01/26 02:46:40;;;;;;;23.00;9.90;;;;;;;-1.46;89.18;98878.94;5032771;28;20478;-78
2021/01/26 02:49:15;;;;;;;19.53;10.03;;;;;;;-1.45;88.37;98888.59;5032952;28;20049;-78
2021/01/26 02:51:52;;;;;;;21.77;10.83;;;;;;;-1.55;88.58;98876.97;5032642;28;20486;-78
2021/01/26 02:54:26;;;;;;;24.00;10.13;;;;;;;-1.39;88.59;98891.78;5035183;28;20096;-78
2021/01/26 02:56:59;;;;;;;19.67;9.07;;;;;;;-1.58;88.27;98858.53;5037278;28;20495;-78
2021/01/26 02:59:33;;;;;;;20.93;9.27;;;;;;;-1.50;88.36;98879.28;5036879;28;20049;-78
2021/01/26 03:02:08;;;;;;;22.50;10.33;;;;;;;-1.40;88.08;98882.97;5036975;28;20073;-78
2021/01/26 03:04:43;;;;;;;17.83;9.60;;;;;;;-1.46;88.06;98886.06;5036457;28;20053;-78
2021/01/26 03:07:10;;;;;;;19.40;9.67;;;;;;;-1.45;87.43;98877.94;5045682;28;20049;-78
2021/01/26 03:09:42;;;;;;;16.30;8.50;;;;;;;-1.21;87.23;98901.06;5056865;28;20063;-79
2021/01/26 03:12:15;;;;;;;20.97;9.43;;;;;;;-1.29;87.58;98890.97;5056456;28;20123;-78
2021/01/26 03:14:47;;;;;;;19.17;9.40;;;;;;;-1.17;88.44;98902.53;5056538;28;20048;-79
2021/01/26 03:17:19;;;;;;;17.97;9.27;;;;;;;-1.34;87.83;98882.50;5056888;28;20048;-78
2021/01/26 03:19:48;;;;;;;19.70;9.10;;;;;;;-1.16;87.26;98896.25;5045795;28;20048;-78
2021/01/26 03:22:17;;;;;;;17.27;8.65;;;;;;;-1.18;87.00;98903.50;5056470;28;20045;-78
2021/01/26 03:24:45;;;;;;;18.58;8.68;;;;;;;-1.12;86.32;98903.03;5056460;28;20134;-78
2021/01/26 03:27:18;;;;;;;16.87;9.07;;;;;;;-1.09;86.60;98904.63;5056218;28;20484;-78
2021/01/26 03:29:49;;;;;;;14.07;8.33;;;;;;;-1.21;86.77;98878.88;5056126;28;20057;-78
2021/01/26 03:32:23;;;;;;;15.53;8.23;;;;;;;-1.18;87.48;98890.16;5055770;28;20532;-78
2021/01/26 03:34:50;;;;;;;18.80;8.73;;;;;;;-1.18;87.54;98883.97;5056283;28;20455;-78
2021/01/26 03:37:16;;;;;;;20.73;8.60;;;;;;;-1.14;87.25;98885.47;5056047;28;20045;-78
2021/01/26 03:39:43;;;;;;;18.40;8.87;;;;;;;-1.20;87.07;98876.09;5056358;28;20048;-78
2021/01/26 03:42:09;;;;;;;17.63;8.27;;;;;;;-1.31;86.87;98863.59;5055941;28;20053;-78
2021/01/26 03:44:37;;;;;;;16.23;8.20;;;;;;;-1.05;86.97;98881.22;5055585;28;20069;-78
2021/01/26 03:47:25;;;;;;;15.90;8.10;;;;;;;-1.01;86.71;98883.56;5056202;28;20045;-78
2021/01/26 03:50:25;;;;;;;18.63;8.53;;;;;;;-1.13;87.00;98871.13;5055887;28;20561;-78
2021/01/26 03:53:02;;;;;;;;;;;;;;;-1.02;87.08;98873.84;5030343;28;20394;-78
2021/01/26 03:55:30;;;;;;;19.20;8.20;;;;;;;-1.02;86.56;98875.63;5037287;28;19924;-78
2021/01/26 03:58:09;;;;;;;18.00;9.37;;;;;;;-1.08;86.33;98861.81;5056046;28;20143;-78
2021/01/26 04:00:42;;;;;;;19.85;9.07;;;;;;;-1.02;86.42;98886.31;5053109;28;20048;-78
2021/01/26 04:03:31;;;;;;;18.23;7.20;;;;;;;-1.04;85.20;98878.41;5056068;28;20040;-78
2021/01/26 04:06:02;;;;;;;18.92;8.23;;;;;;;-1.01;85.85;98883.56;5054800;28;20048;-78
2021/01/26 04:08:34;;;;;;;15.60;8.40;;;;;;;-0.99;86.35;98888.78;5055573;28;20045;-79
2021/01/26 04:11:08;;;;;;;13.97;7.97;;;;;;;-0.96;85.39;98892.03;5055476;28;20648;-79
2021/01/26 04:13:43;;;;;;;13.87;7.17;;;;;;;-1.05;85.44;98881.22;5055671;28;20132;-79
2021/01/26 04:16:14;;;;;;;12.90;7.27;;;;;;;-0.92;86.34;98897.97;5055467;28;20049;-79
2021/01/26 04:18:42;;;;;;;14.67;8.23;;;;;;;-1.00;86.08;98903.91;5055222;28;20045;-78
2021/01/26 04:21:10;;;;;;;17.33;7.63;;;;;;;-0.96;85.57;98907.22;5035523;28;20080;-79
2021/01/26 04:23:37;;;;;;;15.43;8.70;;;;;;;-0.99;85.14;98886.09;5038757;28;20128;-79
2021/01/26 04:26:07;;;;;;;13.43;6.77;;;;;;;-0.82;84.39;98903.47;5035160;28;20060;-79
2021/01/26 04:28:38;;;;;;;13.95;8.02;;;;;;;-0.93;85.58;98888.28;5035225;28;20041;-79
2021/01/26 04:31:06;;;;;;;15.90;7.67;;;;;;;-0.72;84.86;98902.63;5034958;28;20057;-79
2021/01/26 04:33:34;;;;;;;20.90;8.23;;;;;;;-0.73;87.12;98908.09;5035216;28;20049;-79
2021/01/26 04:36:00;;;;;;;18.50;7.93;;;;;;;-0.84;86.50;98894.72;5035023;28;20053;-79
2021/01/26 04:38:26;;;;;;;15.97;8.60;;;;;;;-0.88;85.77;98907.47;5035104;28;20488;-79
2021/01/26 04:40:56;;;;;;;15.23;8.13;;;;;;;-0.92;86.04;98898.84;5039798;28;20075;-79
2021/01/26 04:43:32;;;;;;;13.50;8.07;;;;;;;-0.88;86.16;98904.78;5055185;28;20436;-79
2021/01/26 04:46:07;;;;;;;17.60;7.43;;;;;;;-0.99;87.88;98910.13;5054943;28;20048;-79
2021/01/26 04:48:45;;;;;;;16.60;8.00;;;;;;;-0.98;86.69;98906.47;5054858;28;20053;-79
2021/01/26 04:51:19;;;;;;;13.67;7.90;;;;;;;-0.80;86.98;98918.41;5054336;28;20099;-79
2021/01/26 04:54:03;;;;;;;17.80;7.97;;;;;;;-0.90;88.20;98904.91;5054793;28;20493;-79
2021/01/26 04:56:36;;;;;;;16.50;9.27;;;;;;;-0.75;86.45;98910.03;5054622;28;20056;-78
2021/01/26 04:59:24;;;;;;;17.70;8.07;;;;;;;-0.97;87.45;98906.34;5054734;28;20448;-81
2021/01/26 05:02:09;;;;;;;20.30;6.30;;;;;;;-0.92;87.32;98904.19;5054690;28;20053;-81
2021/01/26 05:04:43;;;;;;;18.00;7.53;;;;;;;-0.93;87.79;98914.97;5054242;28;20053;-78
2021/01/26 05:07:16;;;;;;;17.23;7.47;;;;;;;-0.96;87.39;98918.72;5054272;28;20060;-80
2021/01/26 05:09:49;;;;;;;18.17;7.57;;;;;;;-1.07;88.96;98898.22;5054691;28;20444;-81
2021/01/26 05:12:19;;;;;;;13.60;7.57;;;;;;;-0.98;88.28;98918.00;5053444;28;20045;-81
2021/01/26 05:14:51;;;;;;;12.53;7.07;;;;;;;-1.10;88.85;98895.78;5053486;28;20110;-82
2021/01/26 05:17:22;;;;;;;18.67;7.47;;;;;;;-1.02;88.14;98921.00;5053367;28;20045;-80
2021/01/26 05:20:00;;;;;;;14.07;6.87;;;;;;;-0.96;87.54;98923.22;5053584;28;20099;-77
2021/01/26 05:22:32;;;;;;;12.43;5.47;;;;;;;-0.95;87.68;98933.78;5053605;28;20057;-80
2021/01/26 05:25:04;;;;;;;13.00;6.00;;;;;;;-0.99;87.75;98920.78;5053191;28;20056;-80
2021/01/26 05:27:31;;;;;;;11.00;5.63;;;;;;;-0.99;87.92;98932.31;5053063;28;20497;-81
2021/01/26 05:30:02;;;;;;;8.97;4.77;;;;;;;-1.00;86.72;98905.75;5054058;28;20053;-83
2021/01/26 05:32:29;;;;;;;11.07;5.43;;;;;;;-0.93;86.48;98906.97;5054128;28;20056;-83
2021/01/26 05:35:04;;;;;;;8.73;4.53;;;;;;;-0.86;86.62;98916.19;5053812;28;20048;-83
2021/01/26 05:37:32;;;;;;;9.10;4.90;;;;;;;-0.74;86.12;98920.59;5054689;28;20440;-86
2021/01/26 05:40:07;;;;;;;6.23;4.40;;;;;;;-0.80;85.86;98921.06;5054909;28;20052;-86
2021/01/26 05:42:35;;;;;;;10.73;5.30;;;;;;;-0.78;85.89;98910.28;5054564;28;20059;-83
2021/01/26 05:45:07;;;;;;;10.93;4.93;;;;;;;-0.76;86.70;98930.53;5054800;28;20045;-86
2021/01/26 05:47:39;;;;;;;8.87;4.50;;;;;;;-0.74;85.99;98933.94;5054575;28;20049;-86
2021/01/26 05:50:25;;;;;;;8.07;4.07;;;;;;;-0.73;86.28;98926.78;5054366;28;20049;-86
2021/01/26 05:52:55;;;;;;;6.83;3.90;;;;;;;-0.93;85.69;98896.28;5054331;28;20065;-84
2021/01/26 05:55:24;;;;;;;9.43;2.97;;;;;;;-0.64;85.20;98927.88;5054056;28;20049;-84
2021/01/26 05:57:51;;;;;;;7.05;3.80;;;;;;;-0.72;85.31;98926.66;5054310;28;20088;-84
2021/01/26 06:00:24;;;;;;;10.63;3.77;;;;;;;-0.71;86.36;98932.84;5054258;28;20052;-84
2021/01/26 06:03:08;;;;;;;9.77;4.03;;;;;;;-0.85;85.92;98919.72;5053864;28;20114;-86
2021/01/26 06:05:36;;;;;;;6.10;3.43;;;;;;;-0.72;85.42;98921.31;5053565;28;20052;-88
2021/01/26 06:08:11;;;;;;;15.70;6.27;;;;;;;-0.68;84.95;98926.41;5053902;28;20052;-86
2021/01/26 06:10:43;;;;;;;6.90;3.90;;;;;;;-0.74;85.18;98912.59;5054013;28;20056;-86
2021/01/26 06:13:10;;;;;;;9.67;2.87;;;;;;;-0.65;84.76;98927.00;5053736;28;20060;-86
2021/01/26 06:15:39;;;;;;;8.23;4.47;;;;;;;-0.81;85.23;98913.16;5053838;28;20049;-86
2021/01/26 06:18:17;;;;;;;5.33;2.63;;;;;;;-0.56;83.82;98941.47;5054119;28;20052;-86
2021/01/26 06:21:01;;;;;;;8.03;2.40;;;;;;;-0.60;83.38;98932.88;5053331;28;20053;-83
2021/01/26 06:23:30;;;;;;;4.97;2.83;;;;;;;-0.50;84.51;98945.50;5034185;28;20068;-84
2021/01/26 06:25:59;;;;;;;7.43;2.70;;;;;;;-0.51;83.85;98947.31;5033583;28;20049;-84
2021/01/26 06:28:46;;;;;;;5.28;2.85;;;;;;;-0.53;83.11;98962.59;5032343;28;20308;-87
2021/01/26 06:31:19;;;;;;;6.17;2.13;;;;;;;-0.67;83.12;98936.13;5045022;28;20536;-86
2021/01/26 06:34:18;;;;;;;3.33;2.33;;;;;;;-0.52;83.49;98966.97;5052779;28;20049;-86
2021/01/26 06:37:09;;;;;;;4.00;2.50;;;;;;;-0.50;84.47;98958.84;5046980;28;20045;-87
2021/01/26 06:40:22;;;;;;;16.67;3.60;;;;;;;-0.53;84.68;98967.94;5053228;28;20056;-87
2021/01/26 06:43:03;;;;;;;4.67;3.00;;;;;;;-0.57;84.30;98969.16;4974518;28;20057;-89
2021/01/26 06:45:39;;;;;;;5.10;2.53;;;;;;;-0.54;84.69;98971.59;4974357;28;20058;-90
2021/01/26 06:48:38;;;;;;;3.83;2.37;;;;;;;-0.58;84.20;98968.28;5036246;28;20041;-88
2021/01/26 06:51:29;;;;;;;6.17;3.30;;;;;;;-0.49;84.98;98989.94;5052308;28;20524;-80
2021/01/26 06:54:06;;;;;;;8.17;2.37;;;;;;;-0.57;85.59;98977.19;5052931;28;20049;-82
2021/01/26 06:57:07;;;;;;;3.90;2.17;;;;;;;-0.61;84.69;98962.34;5052882;28;20057;-82
2021/01/26 07:00:17;;;;;;;6.43;2.73;;;;;;;-0.45;84.40;98986.91;5052766;28;20045;-82
2021/01/26 07:03:16;;;;;;;8.10;3.40;;;;;;;-0.65;84.56;98967.06;5032765;28;20053;-83
2021/01/26 07:06:09;;;;;;;2.30;2.03;;;;;;;-0.66;84.39;98973.41;5032603;28;20470;-82
2021/01/26 07:08:52;;;;;;;5.57;3.13;;;;;;;-0.48;84.39;98994.28;5049226;28;20052;-83
2021/01/26 07:11:35;;;;;;;6.57;2.90;;;;;;;-0.62;84.21;98987.34;5047278;28;20053;-82
2021/01/26 07:14:15;;;;;;;9.73;4.50;;;;;;;-0.43;83.18;98995.63;5052037;28;20072;-83
2021/01/26 07:16:46;;;;;;;12.87;4.30;;;;;;;-0.51;84.00;98986.50;5052634;28;20045;-84
2021/01/26 07:19:35;;;;;;;10.70;4.90;;;;;;;-0.31;82.99;99017.88;5052559;28;20091;-82
2021/01/26 07:22:35;;;;;;;17.83;6.10;;;;;;;-0.48;83.05;98999.63;5052990;28;20052;-83
2021/01/26 07:25:12;;;;;;;24.43;7.50;;;;;;;-0.34;83.12;99022.63;5052284;28;20473;-83
2021/01/26 07:28:29;;;;;;;10.67;4.20;;;;;;;-0.52;83.00;98998.19;5034793;28;20127;-80
2021/01/26 07:31:02;;;;;;;7.90;4.07;;;;;;;-0.31;83.34;99033.06;5036901;28;20053;-82
2021/01/26 07:33:35;;;;;;;15.07;5.13;;;;;;;-0.48;83.34;99007.63;5052662;28;20508;-83
2021/01/26 07:36:11;;;;;;;12.90;4.80;;;;;;;-0.46;82.90;99016.41;5052247;28;20059;-82
2021/01/26 07:38:44;;;;;;;16.03;5.63;;;;;;;-0.40;83.53;99040.81;5052622;28;20049;-84
2021/01/26 07:41:31;;;;;;;14.10;4.40;;;;;;;-0.40;82.86;99034.63;5036540;28;20053;-83
2021/01/26 07:44:05;;;;;;;13.73;4.87;;;;;;;-0.34;83.71;99044.00;5054620;28;20053;-83
2021/01/26 07:46:37;;;;;;;13.43;4.93;;;;;;;-0.41;83.67;99041.75;5054504;28;20425;-82
2021/01/26 07:49:12;;;;;;;11.03;4.93;;;;;;;-0.28;84.17;99060.38;5053660;28;20047;-81
2021/01/26 07:51:41;;;;;;;7.60;4.37;;;;;;;-0.26;84.07;99054.91;5054111;28;20049;-84
2021/01/26 07:54:14;;;;;;;12.52;4.45;;;;;;;-0.37;84.14;99042.41;5053670;28;20477;-83
2021/01/26 07:56:42;;;;;;;10.67;4.37;;;;;;;-0.48;84.54;99013.84;5053833;28;20084;-83
2021/01/26 07:59:13;;;;;;;6.00;3.53;;;;;;;-0.49;84.38;99020.16;5053722;28;20076;-83
2021/01/26 08:01:44;;;;;;;14.70;3.43;;;;;;;-0.43;84.38;99032.19;5054833;28;20052;-84
2021/01/26 08:04:11;;;;;;;5.80;4.40;;;;;;;-0.50;83.39;99025.59;5054631;28;20049;-81
2021/01/26 08:06:50;;;;;;;10.07;4.90;;;;;;;-0.31;84.71;99052.59;5054010;28;20060;-83
2021/01/26 08:09:22;;;;;;;24.13;6.82;;;;;;;-0.36;83.43;99052.13;5053784;28;20052;-82
2021/01/26 08:11:56;;;;;;;10.20;4.80;;;;;;;-0.31;84.02;99054.44;5054317;28;20459;-83
2021/01/26 08:14:32;;;;;;;8.97;4.00;;;;;;;-0.22;83.85;99059.91;5053325;28;20056;-83
2021/01/26 08:17:01;;;;;;;7.83;5.13;;;;;;;-0.27;83.48;99045.19;5054105;28;20053;-83
2021/01/26 08:19:32;;;;;;;13.13;5.53;;;;;;;-0.19;83.83;99070.34;5053661;28;20559;-82
2021/01/26 08:22:00;;;;;;;15.70;4.93;;;;;;;-0.18;83.59;99063.22;5053536;28;20065;-82
2021/01/26 08:24:36;;;;;;;12.77;4.30;;;;;;;-0.29;82.97;99041.81;5053349;28;20045;-83
2021/01/26 08:27:26;;;;;;;10.67;4.83;;;;;;;-0.05;83.98;99071.09;5053546;28;20084;-82
2021/01/26 08:29:56;;;;;;;7.30;4.10;;;;;;;-0.32;83.77;99066.91;5053042;28;20107;-82
2021/01/26 08:32:43;;;;;;;7.85;3.42;;;;;;;-0.12;83.73;99084.09;5053464;28;20386;-83
2021/01/26 08:35:12;;;;;;;7.63;4.30;;;;;;;-0.20;83.76;99070.47;5052906;28;20500;-83
2021/01/26 08:37:47;;;;;;;10.30;3.93;;;;;;;-0.16;83.55;99084.47;5053263;28;20055;-81
2021/01/26 08:40:20;;;;;;;7.33;4.33;;;;;;;-0.21;83.23;99079.44;5053214;28;20056;-81
2021/01/26 08:43:02;;;;;;;9.33;4.17;;;;;;;-0.17;82.84;99058.69;5052980;28;20486;-81
2021/01/26 08:45:51;;;;;;;7.07;3.37;;;;;;;-0.08;83.11;99079.38;5052862;28;20544;-82
2021/01/26 08:48:24;;;;;;;7.37;3.27;;;;;;;-0.13;82.67;99095.75;5052554;28;20049;-81
2021/01/26 08:51:09;;;;;;;13.00;4.00;;;;;;;-0.32;83.51;99068.75;5052545;28;20307;-81
2021/01/26 08:53:38;;;;;;;7.57;4.07;;;;;;;-0.21;83.15;99064.28;5052696;28;20292;-80
2021/01/26 08:56:32;;;;;;;5.50;4.05;;;;;;;-0.25;83.06;99064.66;5052599;28;20076;-88
2021/01/26 08:59:01;;;;;;;11.10;4.20;;;;;;;-0.10;82.48;99071.47;5050386;28;20404;-84
2021/01/26 09:01:49;;;;;;;7.23;3.63;;;;;;;-0.01;82.25;99076.09;5052855;28;20099;-84
2021/01/26 09:04:44;;;;;;;6.93;3.80;;;;;;;0.15;80.82;99098.94;5052848;28;20072;-84
2021/01/26 09:07:13;;;;;;;13.43;4.47;;;;;;;-0.06;80.66;99090.78;5053101;28;20067;-83
2021/01/26 09:10:00;;;;;;;4.90;3.20;;;;;;;0.00;81.27;99087.66;5052610;28;20534;-84
2021/01/26 09:12:28;;;;;;;9.70;3.80;;;;;;;-0.01;80.61;99075.25;5048160;28;20076;-85
2021/01/26 09:15:00;;;;;;;8.17;2.50;;;;;;;0.06;80.19;99075.59;5052428;28;20133;-84
2021/01/26 09:17:33;;;;;;;7.70;3.73;;;;;;;0.30;80.58;99104.91;5041966;28;20106;-83
2021/01/26 09:20:09;;;;;;;11.00;3.47;;;;;;;0.04;80.00;99078.41;5032944;28;20061;-84
2021/01/26 09:22:36;;;;;;;4.33;3.20;;;;;;;0.27;80.35;99135.44;5038864;28;20056;-83
2021/01/26 09:25:11;;;;;;;4.97;3.33;;;;;;;0.14;79.99;99119.50;5052848;28;20055;-84
2021/01/26 09:27:38;;;;;;;8.20;4.00;;;;;;;0.09;80.56;99105.63;5052632;28;20470;-85
2021/01/26 09:30:21;;;;;;;4.23;3.07;;;;;;;0.08;79.56;99124.47;5052156;28;20057;-83
2021/01/26 09:33:05;;;;;;;8.73;3.60;;;;;;;0.10;80.12;99115.34;5052765;28;20128;-85
2021/01/26 09:35:35;;;;;;;3.80;2.97;;;;;;;0.25;79.46;99112.44;5052955;28;20420;-85
2021/01/26 09:38:14;;;;;;;10.13;3.87;;;;;;;0.38;79.19;99141.75;5053345;28;20103;-86
2021/01/26 09:40:43;;;;;;;10.50;3.50;;;;;;;0.26;79.69;99140.91;5052572;28;20053;-85
2021/01/26 09:43:14;;;;;;;6.70;2.77;;;;;;;0.29;78.86;99146.84;5052546;28;20481;-86
2021/01/26 09:45:42;;;;;;;9.37;3.77;;;;;;;0.32;78.79;99159.16;5052504;28;20460;-86
2021/01/26 09:48:13;;;;;;;6.47;2.87;;;;;;;0.29;78.56;99160.22;5052504;28;20084;-85
2021/01/26 09:50:41;;;;;;;5.33;3.03;;;;;;;0.25;79.24;99147.22;5051797;28;20064;-85
2021/01/26 09:53:07;;;;;;;11.37;2.50;;;;;;;0.25;78.45;99157.91;5052808;28;20053;-85
2021/01/26 09:55:35;;;;;;;10.53;2.77;;;;;;;0.19;79.11;99150.38;5051760;28;20060;-84
2021/01/26 09:58:02;;;;;;;3.80;2.87;;;;;;;0.29;78.30;99160.22;5052659;28;20076;-85
2021/01/26 10:00:31;;;;;;;7.43;3.23;;;;;;;0.35;78.11;99167.75;5052019;28;20052;-84
2021/01/26 10:03:00;;;;;;;5.93;2.80;;;;;;;0.40;78.76;99145.16;5051712;28;20049;-84
2021/01/26 10:05:29;;;;;;;3.73;2.70;;;;;;;0.70;77.84;99174.81;5051855;28;20478;-85
2021/01/26 10:08:08;;;;;;;4.50;2.73;;;;;;;0.62;77.17;99160.38;5052247;28;20607;-85
2021/01/26 10:10:36;;;;;;;8.80;3.28;;;;;;;0.52;76.96;99152.22;5052104;28;20052;-85
2021/01/26 10:13:30;;;;;;;9.07;3.37;;;;;;;0.80;77.53;99182.13;5052234;28;20053;-85
2021/01/26 10:15:57;;;;;;;10.23;3.50;;;;;;;0.86;77.85;99189.69;5051621;28;20041;-84
2021/01/26 10:18:26;;;;;;;11.90;3.53;;;;;;;0.84;76.76;99172.88;5052069;28;20053;-84
2021/01/26 10:20:59;;;;;;;5.38;3.42;;;;;;;0.84;77.26;99188.94;5052389;28;20409;-85
2021/01/26 10:23:35;;;;;;;4.77;2.93;;;;;;;0.62;77.47;99177.28;5052038;28;20068;-84
2021/01/26 10:26:11;;;;;;;10.63;3.23;;;;;;;0.59;77.09;99187.34;5051716;28;20390;-85
2021/01/26 10:29:01;;;;;;;3.43;2.17;;;;;;;0.55;77.23;99193.94;5051789;28;20489;-84
2021/01/26 10:31:29;;;;;;;3.65;2.22;;;;;;;0.41;77.10;99184.31;5051376;28;20064;-85
2021/01/26 10:33:55;;;;;;;7.67;3.20;;;;;;;0.33;77.29;99184.91;5051826;28;20501;-85
2021/01/26 10:36:33;;;;;;;7.80;3.53;;;;;;;0.27;76.76;99163.97;5033411;28;20053;-85
2021/01/26 10:39:20;;;;;;;4.60;2.43;;;;;;;0.39;76.36;99180.91;5051900;28;20056;-84
2021/01/26 10:41:46;;;;;;;9.23;3.10;;;;;;;0.26;76.39;99157.78;5051929;28;20057;-85
2021/01/26 10:44:15;;;;;;;3.77;2.20;;;;;;;0.52;76.60;99198.53;5051360;28;20265;-85
2021/01/26 10:46:44;;;;;;;3.60;2.37;;;;;;;0.61;75.84;99207.66;5051168;28;20049;-85
2021/01/26 10:49:15;;;;;;;10.47;2.63;;;;;;;0.46;76.39;99188.31;5050663;28;20117;-85
2021/01/26 10:51:43;;;;;;;3.90;2.50;;;;;;;0.52;76.22;99185.16;5031261;28;20049;-83
2021/01/26 10:54:11;;;;;;;11.10;2.93;;;;;;;0.52;75.89;99205.72;5043403;28;20056;-85
2021/01/26 10:56:38;;;;;;;6.10;2.37;;;;;;;0.69;76.08;99209.72;5051730;28;20049;-85
2021/01/26 10:59:05;;;;;;;6.50;2.73;;;;;;;0.62;75.89;99195.16;5051628;28;20377;-85
2021/01/26 11:01:32;;;;;;;8.20;3.37;;;;;;;0.60;75.99;99195.25;5051802;28;20049;-84
2021/01/26 11:03:59;;;;;;;5.37;3.03;;;;;;;0.80;76.08;99214.22;5051648;28;20126;-84
2021/01/26 11:06:26;;;;;;;6.10;2.73;;;;;;;0.88;75.41;99219.84;5051289;28;20056;-83
2021/01/26 11:08:53;;;;;;;5.20;3.23;;;;;;;0.75;75.35;99211.09;5051372;28;20448;-85
2021/01/26 11:11:23;;;;;;;8.23;2.87;;;;;;;0.68;75.84;99211.56;5051512;28;20053;-84
2021/01/26 11:13:51;;;;;;;6.37;3.07;;;;;;;0.79;75.54;99231.28;5051688;28;20056;-84
2021/01/26 11:16:18;;;;;;;5.10;2.73;;;;;;;0.64;75.28;99204.75;5054526;28;20505;-85
2021/01/26 11:18:44;;;;;;;5.63;2.47;;;;;;;0.73;75.67;99223.75;5055154;28;20500;-84
2021/01/26 11:21:12;;;;;;;6.20;2.47;;;;;;;0.80;75.66;99231.16;5055203;28;20052;-85
2021/01/26 11:23:38;;;;;;;6.10;2.73;;;;;;;0.70;74.52;99219.47;5055148;28;20052;-84
2021/01/26 11:26:06;;;;;;;14.20;2.77;;;;;;;0.88;75.31;99241.25;5055256;28;20531;-85
2021/01/26 11:28:34;;;;;;;4.63;2.63;;;;;;;0.75;75.19;99216.44;5054635;28;20052;-84
2021/01/26 11:31:00;;;;;;;5.10;2.93;;;;;;;0.91;74.60;99221.44;5055175;28;20098;-85
2021/01/26 11:33:27;;;;;;;3.37;2.43;;;;;;;0.98;74.23;99230.66;5054901;28;20300;-85
2021/01/26 11:35:54;;;;;;;7.93;2.80;;;;;;;0.65;74.97;99206.47;5055091;28;20408;-85
2021/01/26 11:38:21;;;;;;;3.87;2.90;;;;;;;0.54;74.95;99193.06;5054869;28;20048;-85
2021/01/26 11:40:47;;;;;;;2.30;1.63;;;;;;;0.61;74.75;99217.53;5055602;28;20482;-84
2021/01/26 11:43:14;;;;;;;4.17;2.40;;;;;;;0.66;75.04;99229.59;5055056;28;20061;-85
2021/01/26 11:45:42;;;;;;;3.73;2.40;;;;;;;0.62;74.90;99219.25;5054619;28;20057;-85
2021/01/26 11:48:11;;;;;;;6.87;2.87;;;;;;;0.84;75.39;99234.44;5054122;28;20049;-86
2021/01/26 11:50:38;;;;;;;9.97;2.87;;;;;;;0.81;74.49;99227.53;5052198;28;20057;-85
2021/01/26 11:53:06;;;;;;;7.53;2.77;;;;;;;0.93;74.21;99233.72;5052006;28;20037;-84
2021/01/26 11:55:33;;;;;;;8.07;2.90;;;;;;;0.84;74.08;99227.28;5049914;28;20041;-85
2021/01/26 11:58:00;;;;;;;6.07;2.40;;;;;;;0.94;74.13;99207.81;5054550;28;20049;-85